sensor_id;sensor_type;location;lat;lon;timestamp;temperature;humidity
6142;DHT22;71289;51.552;6.210;2023-08-07T00:01:44;13.90;99.90
6142;DHT22;71289;51.552;6.210;2023-08-07T00:04:09;13.80;99.90
6142;DHT22;71289;51.552;6.210;2023-08-07T00:06:35;14.10;99.90
6142;DHT22;71289;51.552;6.210;2023-08-07T00:09:01;13.80;99.90
6142;DHT22;71289;51.552;6.210;2023-08-07T00:11:26;13.80;99.90
6142;DHT22;71289;51.552;6.210;2023-08-07T00:13:53;13.80;99.90
6142;DHT22;71289;51.552;6.210;2023-08-07T00:16:19;13.80;99.90
6142;DHT22;71289;51.552;6.210;2023-08-07T00:18:44;13.80;99.90
6142;DHT22;71289;51.552;6.210;2023-08-07T00:21:10;13.90;99.90
6142;DHT22;71289;51.552;6.210;2023-08-07T00:23:36;13.90;99.90
6142;DHT22;71289;51.552;6.210;2023-08-07T00:26:01;13.90;99.90
6142;DHT22;71289;51.552;6.210;2023-08-07T00:28:27;14.20;99.90
6142;DHT22;71289;51.552;6.210;2023-08-07T00:30:55;13.90;99.90
6142;DHT22;71289;51.552;6.210;2023-08-07T00:33:20;13.90;99.90
6142;DHT22;71289;51.552;6.210;2023-08-07T00:35:46;13.80;99.90
6142;DHT22;71289;51.552;6.210;2023-08-07T00:38:11;14.10;99.90
6142;DHT22;71289;51.552;6.210;2023-08-07T00:40:38;13.90;99.90
6142;DHT22;71289;51.552;6.210;2023-08-07T00:43:04;13.90;99.90
6142;DHT22;71289;51.552;6.210;2023-08-07T00:45:30;13.90;99.90
6142;DHT22;71289;51.552;6.210;2023-08-07T00:47:57;13.90;99.90
6142;DHT22;71289;51.552;6.210;2023-08-07T00:50:23;13.90;99.90
6142;DHT22;71289;51.552;6.210;2023-08-07T00:52:49;13.80;99.90
6142;DHT22;71289;51.552;6.210;2023-08-07T00:55:15;13.80;99.90
6142;DHT22;71289;51.552;6.210;2023-08-07T00:57:40;13.80;99.90
6142;DHT22;71289;51.552;6.210;2023-08-07T01:00:07;13.80;99.90
6142;DHT22;71289;51.552;6.210;2023-08-07T01:02:33;13.90;99.90
6142;DHT22;71289;51.552;6.210;2023-08-07T01:04:59;13.80;99.90
6142;DHT22;71289;51.552;6.210;2023-08-07T01:07:24;13.90;99.90
6142;DHT22;71289;51.552;6.210;2023-08-07T01:09:50;13.90;99.90
6142;DHT22;71289;51.552;6.210;2023-08-07T01:14:56;13.90;99.90
6142;DHT22;71289;51.552;6.210;2023-08-07T01:17:24;13.80;99.90
6142;DHT22;71289;51.552;6.210;2023-08-07T01:19:51;13.80;99.90
6142;DHT22;71289;51.552;6.210;2023-08-07T01:22:18;13.80;99.90
6142;DHT22;71289;51.552;6.210;2023-08-07T01:24:46;13.80;99.90
6142;DHT22;71289;51.552;6.210;2023-08-07T01:29:49;13.80;99.90
6142;DHT22;71289;51.552;6.210;2023-08-07T01:32:23;13.80;99.90
6142;DHT22;71289;51.552;6.210;2023-08-07T01:34:50;13.80;99.90
6142;DHT22;71289;51.552;6.210;2023-08-07T01:37:17;13.80;99.90
6142;DHT22;71289;51.552;6.210;2023-08-07T01:39:44;13.70;99.90
6142;DHT22;71289;51.552;6.210;2023-08-07T01:42:11;13.80;99.90
6142;DHT22;71289;51.552;6.210;2023-08-07T01:44:37;13.70;99.90
6142;DHT22;71289;51.552;6.210;2023-08-07T01:47:03;13.80;99.90
6142;DHT22;71289;51.552;6.210;2023-08-07T01:49:29;13.80;99.90
6142;DHT22;71289;51.552;6.210;2023-08-07T01:51:54;13.80;99.90
6142;DHT22;71289;51.552;6.210;2023-08-07T01:54:20;13.80;99.90
6142;DHT22;71289;51.552;6.210;2023-08-07T01:56:45;13.80;99.90
6142;DHT22;71289;51.552;6.210;2023-08-07T01:59:11;14.00;99.90
6142;DHT22;71289;51.552;6.210;2023-08-07T02:01:36;13.90;99.90
6142;DHT22;71289;51.552;6.210;2023-08-07T02:04:02;13.70;99.90
6142;DHT22;71289;51.552;6.210;2023-08-07T02:06:27;13.80;99.90
6142;DHT22;71289;51.552;6.210;2023-08-07T02:08:53;13.80;99.90
6142;DHT22;71289;51.552;6.210;2023-08-07T02:11:18;13.80;99.90
6142;DHT22;71289;51.552;6.210;2023-08-07T02:13:44;13.90;99.90
6142;DHT22;71289;51.552;6.210;2023-08-07T02:16:09;13.80;99.90
6142;DHT22;71289;51.552;6.210;2023-08-07T02:18:35;13.80;99.90
6142;DHT22;71289;51.552;6.210;2023-08-07T02:21:01;13.90;99.90
6142;DHT22;71289;51.552;6.210;2023-08-07T02:23:26;13.80;99.90
6142;DHT22;71289;51.552;6.210;2023-08-07T02:25:54;13.80;99.90
6142;DHT22;71289;51.552;6.210;2023-08-07T02:28:19;13.80;99.90
6142;DHT22;71289;51.552;6.210;2023-08-07T02:30:46;14.00;99.90
6142;DHT22;71289;51.552;6.210;2023-08-07T02:33:14;14.00;99.90
6142;DHT22;71289;51.552;6.210;2023-08-07T02:35:39;13.80;99.90
6142;DHT22;71289;51.552;6.210;2023-08-07T02:38:05;13.90;99.90
6142;DHT22;71289;51.552;6.210;2023-08-07T02:40:30;13.90;99.90
6142;DHT22;71289;51.552;6.210;2023-08-07T02:42:56;14.00;99.90
6142;DHT22;71289;51.552;6.210;2023-08-07T02:45:22;13.90;99.90
6142;DHT22;71289;51.552;6.210;2023-08-07T02:47:47;14.10;99.90
6142;DHT22;71289;51.552;6.210;2023-08-07T02:50:13;13.80;99.90
6142;DHT22;71289;51.552;6.210;2023-08-07T02:52:38;13.80;99.90
6142;DHT22;71289;51.552;6.210;2023-08-07T02:55:04;13.90;99.90
6142;DHT22;71289;51.552;6.210;2023-08-07T02:57:30;13.90;99.90
6142;DHT22;71289;51.552;6.210;2023-08-07T02:59:55;13.90;99.90
6142;DHT22;71289;51.552;6.210;2023-08-07T03:02:21;13.90;99.90
6142;DHT22;71289;51.552;6.210;2023-08-07T03:04:46;13.80;99.90
6142;DHT22;71289;51.552;6.210;2023-08-07T03:07:12;13.80;99.90
6142;DHT22;71289;51.552;6.210;2023-08-07T03:09:37;13.70;99.90
6142;DHT22;71289;51.552;6.210;2023-08-07T03:12:03;13.80;99.90
6142;DHT22;71289;51.552;6.210;2023-08-07T03:14:30;13.80;99.90
6142;DHT22;71289;51.552;6.210;2023-08-07T03:16:55;13.80;99.90
6142;DHT22;71289;51.552;6.210;2023-08-07T03:19:21;13.80;99.90
6142;DHT22;71289;51.552;6.210;2023-08-07T03:21:47;13.70;99.90
6142;DHT22;71289;51.552;6.210;2023-08-07T03:24:12;13.80;99.90
6142;DHT22;71289;51.552;6.210;2023-08-07T03:26:38;13.80;99.90
6142;DHT22;71289;51.552;6.210;2023-08-07T03:29:04;13.70;99.90
6142;DHT22;71289;51.552;6.210;2023-08-07T03:31:29;13.70;99.90
6142;DHT22;71289;51.552;6.210;2023-08-07T03:33:55;13.70;99.90
6142;DHT22;71289;51.552;6.210;2023-08-07T03:36:20;13.70;99.90
6142;DHT22;71289;51.552;6.210;2023-08-07T03:38:46;13.70;99.90
6142;DHT22;71289;51.552;6.210;2023-08-07T03:41:11;13.70;99.90
6142;DHT22;71289;51.552;6.210;2023-08-07T03:43:37;13.60;99.90
6142;DHT22;71289;51.552;6.210;2023-08-07T03:46:02;13.70;99.90
6142;DHT22;71289;51.552;6.210;2023-08-07T03:48:28;13.70;99.90
6142;DHT22;71289;51.552;6.210;2023-08-07T03:51:02;13.70;99.90
6142;DHT22;71289;51.552;6.210;2023-08-07T03:53:28;13.70;99.90
6142;DHT22;71289;51.552;6.210;2023-08-07T03:55:53;13.70;99.90
6142;DHT22;71289;51.552;6.210;2023-08-07T03:58:19;13.70;99.90
6142;DHT22;71289;51.552;6.210;2023-08-07T04:00:44;13.60;99.90
6142;DHT22;71289;51.552;6.210;2023-08-07T04:03:10;13.60;99.90
6142;DHT22;71289;51.552;6.210;2023-08-07T04:05:35;13.70;99.90
6142;DHT22;71289;51.552;6.210;2023-08-07T04:08:01;13.60;99.90
6142;DHT22;71289;51.552;6.210;2023-08-07T04:10:26;13.70;99.90
6142;DHT22;71289;51.552;6.210;2023-08-07T04:12:52;13.70;99.90
6142;DHT22;71289;51.552;6.210;2023-08-07T04:15:17;13.70;99.90
6142;DHT22;71289;51.552;6.210;2023-08-07T04:17:43;13.70;99.90
6142;DHT22;71289;51.552;6.210;2023-08-07T04:20:09;13.70;99.90
6142;DHT22;71289;51.552;6.210;2023-08-07T04:22:34;13.70;99.90
6142;DHT22;71289;51.552;6.210;2023-08-07T04:25:00;13.70;99.90
6142;DHT22;71289;51.552;6.210;2023-08-07T04:27:26;13.60;99.90
6142;DHT22;71289;51.552;6.210;2023-08-07T04:29:52;13.60;99.90
6142;DHT22;71289;51.552;6.210;2023-08-07T04:32:17;13.70;99.90
6142;DHT22;71289;51.552;6.210;2023-08-07T04:34:43;13.70;99.90
6142;DHT22;71289;51.552;6.210;2023-08-07T04:37:08;13.70;99.90
6142;DHT22;71289;51.552;6.210;2023-08-07T04:39:34;13.70;99.90
6142;DHT22;71289;51.552;6.210;2023-08-07T04:42:01;13.70;99.90
6142;DHT22;71289;51.552;6.210;2023-08-07T04:44:26;13.70;99.90
6142;DHT22;71289;51.552;6.210;2023-08-07T04:46:52;13.60;99.90
6142;DHT22;71289;51.552;6.210;2023-08-07T04:49:17;13.60;99.90
6142;DHT22;71289;51.552;6.210;2023-08-07T04:51:43;13.60;99.90
6142;DHT22;71289;51.552;6.210;2023-08-07T04:54:08;13.70;99.90
6142;DHT22;71289;51.552;6.210;2023-08-07T04:56:34;13.70;99.90
6142;DHT22;71289;51.552;6.210;2023-08-07T04:58:59;13.90;99.90
6142;DHT22;71289;51.552;6.210;2023-08-07T05:01:27;13.60;99.90
6142;DHT22;71289;51.552;6.210;2023-08-07T05:03:52;13.60;99.90
6142;DHT22;71289;51.552;6.210;2023-08-07T05:06:18;13.50;99.90
6142;DHT22;71289;51.552;6.210;2023-08-07T05:08:44;13.50;99.90
6142;DHT22;71289;51.552;6.210;2023-08-07T05:11:10;13.50;99.90
6142;DHT22;71289;51.552;6.210;2023-08-07T05:13:35;13.40;99.90
6142;DHT22;71289;51.552;6.210;2023-08-07T05:16:01;13.40;99.90
6142;DHT22;71289;51.552;6.210;2023-08-07T05:18:26;13.40;99.90
6142;DHT22;71289;51.552;6.210;2023-08-07T05:20:52;13.40;99.90
6142;DHT22;71289;51.552;6.210;2023-08-07T05:23:17;13.30;99.90
6142;DHT22;71289;51.552;6.210;2023-08-07T05:25:45;13.40;99.90
6142;DHT22;71289;51.552;6.210;2023-08-07T05:28:12;13.50;99.90
6142;DHT22;71289;51.552;6.210;2023-08-07T05:30:37;13.40;99.90
6142;DHT22;71289;51.552;6.210;2023-08-07T05:33:03;13.40;99.90
6142;DHT22;71289;51.552;6.210;2023-08-07T05:35:29;13.40;99.90
6142;DHT22;71289;51.552;6.210;2023-08-07T05:37:54;13.40;99.90
6142;DHT22;71289;51.552;6.210;2023-08-07T05:40:20;13.50;99.90
6142;DHT22;71289;51.552;6.210;2023-08-07T05:42:45;13.40;99.90
6142;DHT22;71289;51.552;6.210;2023-08-07T05:45:11;13.40;99.90
6142;DHT22;71289;51.552;6.210;2023-08-07T05:47:36;13.30;99.90
6142;DHT22;71289;51.552;6.210;2023-08-07T05:50:02;13.40;99.90
6142;DHT22;71289;51.552;6.210;2023-08-07T05:52:28;13.40;99.90
6142;DHT22;71289;51.552;6.210;2023-08-07T05:54:53;13.40;99.90
6142;DHT22;71289;51.552;6.210;2023-08-07T05:57:19;13.40;99.90
6142;DHT22;71289;51.552;6.210;2023-08-07T05:59:44;13.40;99.90
6142;DHT22;71289;51.552;6.210;2023-08-07T06:02:10;13.40;99.90
6142;DHT22;71289;51.552;6.210;2023-08-07T06:04:37;13.40;99.90
6142;DHT22;71289;51.552;6.210;2023-08-07T06:07:02;13.50;99.90
6142;DHT22;71289;51.552;6.210;2023-08-07T06:09:28;13.50;99.90
6142;DHT22;71289;51.552;6.210;2023-08-07T06:11:53;13.50;99.90
6142;DHT22;71289;51.552;6.210;2023-08-07T06:14:19;13.50;99.90
6142;DHT22;71289;51.552;6.210;2023-08-07T06:16:44;13.50;99.90
6142;DHT22;71289;51.552;6.210;2023-08-07T06:19:10;13.60;99.90
6142;DHT22;71289;51.552;6.210;2023-08-07T06:21:36;13.50;99.90
6142;DHT22;71289;51.552;6.210;2023-08-07T06:24:01;13.50;99.90
6142;DHT22;71289;51.552;6.210;2023-08-07T06:26:27;13.60;99.90
6142;DHT22;71289;51.552;6.210;2023-08-07T06:28:52;13.50;99.90
6142;DHT22;71289;51.552;6.210;2023-08-07T06:31:18;13.50;99.90
6142;DHT22;71289;51.552;6.210;2023-08-07T06:33:43;13.60;99.90
6142;DHT22;71289;51.552;6.210;2023-08-07T06:36:09;13.60;99.90
6142;DHT22;71289;51.552;6.210;2023-08-07T06:38:34;13.70;99.90
6142;DHT22;71289;51.552;6.210;2023-08-07T06:41:00;13.70;99.90
6142;DHT22;71289;51.552;6.210;2023-08-07T06:43:25;13.80;99.90
6142;DHT22;71289;51.552;6.210;2023-08-07T06:45:55;13.80;99.90
6142;DHT22;71289;51.552;6.210;2023-08-07T06:48:21;13.80;99.90
6142;DHT22;71289;51.552;6.210;2023-08-07T06:50:48;13.80;99.90
6142;DHT22;71289;51.552;6.210;2023-08-07T06:53:14;13.80;99.90
6142;DHT22;71289;51.552;6.210;2023-08-07T06:55:41;13.80;99.90
6142;DHT22;71289;51.552;6.210;2023-08-07T06:58:06;13.80;99.90
6142;DHT22;71289;51.552;6.210;2023-08-07T07:00:33;13.80;99.90
6142;DHT22;71289;51.552;6.210;2023-08-07T07:03:00;13.80;99.90
6142;DHT22;71289;51.552;6.210;2023-08-07T07:05:26;13.80;99.90
6142;DHT22;71289;51.552;6.210;2023-08-07T07:07:51;13.80;99.90
6142;DHT22;71289;51.552;6.210;2023-08-07T07:10:17;13.80;99.90
6142;DHT22;71289;51.552;6.210;2023-08-07T07:12:42;13.80;99.90
6142;DHT22;71289;51.552;6.210;2023-08-07T07:15:08;13.90;99.90
6142;DHT22;71289;51.552;6.210;2023-08-07T07:17:34;14.00;99.90
6142;DHT22;71289;51.552;6.210;2023-08-07T07:20:00;14.00;99.90
6142;DHT22;71289;51.552;6.210;2023-08-07T07:22:25;14.00;99.90
6142;DHT22;71289;51.552;6.210;2023-08-07T07:24:51;14.00;99.90
6142;DHT22;71289;51.552;6.210;2023-08-07T07:27:17;14.00;99.90
6142;DHT22;71289;51.552;6.210;2023-08-07T07:29:42;14.00;99.90
6142;DHT22;71289;51.552;6.210;2023-08-07T07:32:08;14.10;99.90
6142;DHT22;71289;51.552;6.210;2023-08-07T07:34:33;14.10;99.90
6142;DHT22;71289;51.552;6.210;2023-08-07T07:36:59;14.10;99.90
6142;DHT22;71289;51.552;6.210;2023-08-07T07:39:24;14.10;99.90
6142;DHT22;71289;51.552;6.210;2023-08-07T07:41:50;14.10;99.90
6142;DHT22;71289;51.552;6.210;2023-08-07T07:44:15;14.10;99.90
6142;DHT22;71289;51.552;6.210;2023-08-07T07:46:41;14.20;99.90
6142;DHT22;71289;51.552;6.210;2023-08-07T07:49:06;14.10;99.90
6142;DHT22;71289;51.552;6.210;2023-08-07T07:51:32;14.10;99.90
6142;DHT22;71289;51.552;6.210;2023-08-07T07:53:58;14.20;99.90
6142;DHT22;71289;51.552;6.210;2023-08-07T07:56:24;14.20;99.90
6142;DHT22;71289;51.552;6.210;2023-08-07T07:58:49;14.30;99.90
6142;DHT22;71289;51.552;6.210;2023-08-07T08:01:15;14.30;99.90
6142;DHT22;71289;51.552;6.210;2023-08-07T08:03:40;14.30;99.90
6142;DHT22;71289;51.552;6.210;2023-08-07T08:06:06;14.30;99.90
6142;DHT22;71289;51.552;6.210;2023-08-07T08:08:31;14.40;99.90
6142;DHT22;71289;51.552;6.210;2023-08-07T08:10:57;14.80;99.90
6142;DHT22;71289;51.552;6.210;2023-08-07T08:13:23;14.50;99.90
6142;DHT22;71289;51.552;6.210;2023-08-07T08:15:50;14.60;99.90
6142;DHT22;71289;51.552;6.210;2023-08-07T08:18:16;14.60;99.90
6142;DHT22;71289;51.552;6.210;2023-08-07T08:20:41;14.70;99.90
6142;DHT22;71289;51.552;6.210;2023-08-07T08:23:07;14.80;99.90
6142;DHT22;71289;51.552;6.210;2023-08-07T08:25:32;14.80;99.90
6142;DHT22;71289;51.552;6.210;2023-08-07T08:27:58;14.80;99.90
6142;DHT22;71289;51.552;6.210;2023-08-07T08:30:25;15.00;99.90
6142;DHT22;71289;51.552;6.210;2023-08-07T08:32:50;14.90;99.90
6142;DHT22;71289;51.552;6.210;2023-08-07T08:35:16;15.00;99.90
6142;DHT22;71289;51.552;6.210;2023-08-07T08:37:41;15.00;99.90
6142;DHT22;71289;51.552;6.210;2023-08-07T08:40:10;15.10;99.90
6142;DHT22;71289;51.552;6.210;2023-08-07T08:42:46;15.00;99.90
6142;DHT22;71289;51.552;6.210;2023-08-07T08:45:13;15.10;99.90
6142;DHT22;71289;51.552;6.210;2023-08-07T08:47:41;15.10;99.90
6142;DHT22;71289;51.552;6.210;2023-08-07T08:50:09;15.00;99.90
6142;DHT22;71289;51.552;6.210;2023-08-07T08:52:38;15.00;99.90
6142;DHT22;71289;51.552;6.210;2023-08-07T08:55:04;15.00;99.90
6142;DHT22;71289;51.552;6.210;2023-08-07T08:57:30;15.00;99.90
6142;DHT22;71289;51.552;6.210;2023-08-07T08:59:57;14.90;99.90
6142;DHT22;71289;51.552;6.210;2023-08-07T09:02:23;14.90;99.90
6142;DHT22;71289;51.552;6.210;2023-08-07T09:04:48;14.90;99.90
6142;DHT22;71289;51.552;6.210;2023-08-07T09:07:15;14.90;99.90
6142;DHT22;71289;51.552;6.210;2023-08-07T09:09:42;14.90;99.90
6142;DHT22;71289;51.552;6.210;2023-08-07T09:12:31;14.90;99.90
6142;DHT22;71289;51.552;6.210;2023-08-07T09:14:58;14.90;99.90
6142;DHT22;71289;51.552;6.210;2023-08-07T09:17:32;15.00;99.90
6142;DHT22;71289;51.552;6.210;2023-08-07T09:19:59;15.10;99.90
6142;DHT22;71289;51.552;6.210;2023-08-07T09:22:25;15.30;99.90
6142;DHT22;71289;51.552;6.210;2023-08-07T09:24:50;15.30;99.90
6142;DHT22;71289;51.552;6.210;2023-08-07T09:27:16;15.50;99.90
6142;DHT22;71289;51.552;6.210;2023-08-07T09:29:43;15.60;99.90
6142;DHT22;71289;51.552;6.210;2023-08-07T09:32:12;15.70;99.90
6142;DHT22;71289;51.552;6.210;2023-08-07T09:34:41;15.80;99.90
6142;DHT22;71289;51.552;6.210;2023-08-07T09:37:10;15.80;99.90
6142;DHT22;71289;51.552;6.210;2023-08-07T09:39:37;15.90;99.90
6142;DHT22;71289;51.552;6.210;2023-08-07T09:42:03;15.90;99.90
6142;DHT22;71289;51.552;6.210;2023-08-07T09:44:36;16.00;99.90
6142;DHT22;71289;51.552;6.210;2023-08-07T09:47:14;16.00;99.90
6142;DHT22;71289;51.552;6.210;2023-08-07T09:49:41;16.10;99.90
6142;DHT22;71289;51.552;6.210;2023-08-07T09:52:09;16.30;99.90
6142;DHT22;71289;51.552;6.210;2023-08-07T09:54:35;16.30;99.90
6142;DHT22;71289;51.552;6.210;2023-08-07T09:57:02;16.30;99.90
6142;DHT22;71289;51.552;6.210;2023-08-07T09:59:28;16.30;99.90
6142;DHT22;71289;51.552;6.210;2023-08-07T10:01:55;16.60;99.90
6142;DHT22;71289;51.552;6.210;2023-08-07T10:04:21;16.30;99.90
6142;DHT22;71289;51.552;6.210;2023-08-07T10:06:48;16.20;99.90
6142;DHT22;71289;51.552;6.210;2023-08-07T10:09:13;16.20;99.90
6142;DHT22;71289;51.552;6.210;2023-08-07T10:11:40;16.30;99.90
6142;DHT22;71289;51.552;6.210;2023-08-07T10:14:06;16.40;99.90
6142;DHT22;71289;51.552;6.210;2023-08-07T10:16:32;16.80;99.90
6142;DHT22;71289;51.552;6.210;2023-08-07T10:18:58;16.80;99.90
6142;DHT22;71289;51.552;6.210;2023-08-07T10:21:24;16.90;99.90
6142;DHT22;71289;51.552;6.210;2023-08-07T10:23:53;17.10;99.90
6142;DHT22;71289;51.552;6.210;2023-08-07T10:26:19;17.20;99.90
6142;DHT22;71289;51.552;6.210;2023-08-07T10:28:46;17.20;99.90
6142;DHT22;71289;51.552;6.210;2023-08-07T10:31:13;17.60;99.90
6142;DHT22;71289;51.552;6.210;2023-08-07T10:33:40;17.70;99.90
6142;DHT22;71289;51.552;6.210;2023-08-07T10:36:10;17.80;99.90
6142;DHT22;71289;51.552;6.210;2023-08-07T10:38:36;17.80;99.90
6142;DHT22;71289;51.552;6.210;2023-08-07T10:41:14;17.80;99.90
6142;DHT22;71289;51.552;6.210;2023-08-07T10:43:44;17.70;99.90
6142;DHT22;71289;51.552;6.210;2023-08-07T10:46:14;17.70;99.90
6142;DHT22;71289;51.552;6.210;2023-08-07T10:48:44;17.50;99.90
6142;DHT22;71289;51.552;6.210;2023-08-07T10:51:18;17.40;99.90
6142;DHT22;71289;51.552;6.210;2023-08-07T10:53:48;17.30;99.90
6142;DHT22;71289;51.552;6.210;2023-08-07T10:56:33;17.20;99.90
6142;DHT22;71289;51.552;6.210;2023-08-07T10:59:08;17.30;99.90
6142;DHT22;71289;51.552;6.210;2023-08-07T11:04:05;17.20;99.90
6142;DHT22;71289;51.552;6.210;2023-08-07T11:06:35;17.20;99.90
6142;DHT22;71289;51.552;6.210;2023-08-07T11:09:02;17.20;99.90
6142;DHT22;71289;51.552;6.210;2023-08-07T11:11:38;17.30;99.90
6142;DHT22;71289;51.552;6.210;2023-08-07T11:14:15;17.50;99.90
6142;DHT22;71289;51.552;6.210;2023-08-07T11:16:41;17.60;99.90
6142;DHT22;71289;51.552;6.210;2023-08-07T11:19:08;17.70;99.90
6142;DHT22;71289;51.552;6.210;2023-08-07T11:21:33;17.80;99.90
6142;DHT22;71289;51.552;6.210;2023-08-07T11:23:59;17.90;99.90
6142;DHT22;71289;51.552;6.210;2023-08-07T11:26:25;18.10;99.90
6142;DHT22;71289;51.552;6.210;2023-08-07T11:28:53;18.30;99.90
6142;DHT22;71289;51.552;6.210;2023-08-07T11:31:19;18.40;99.90
6142;DHT22;71289;51.552;6.210;2023-08-07T11:33:45;18.40;99.90
6142;DHT22;71289;51.552;6.210;2023-08-07T11:36:11;18.60;99.90
6142;DHT22;71289;51.552;6.210;2023-08-07T11:38:40;18.60;99.90
6142;DHT22;71289;51.552;6.210;2023-08-07T11:41:08;18.70;99.90
6142;DHT22;71289;51.552;6.210;2023-08-07T11:43:35;18.70;99.90
6142;DHT22;71289;51.552;6.210;2023-08-07T11:46:02;18.70;99.90
6142;DHT22;71289;51.552;6.210;2023-08-07T11:48:30;18.70;99.90
6142;DHT22;71289;51.552;6.210;2023-08-07T11:50:57;18.70;99.90
6142;DHT22;71289;51.552;6.210;2023-08-07T11:53:24;18.60;99.90
6142;DHT22;71289;51.552;6.210;2023-08-07T11:56:02;18.50;99.90
6142;DHT22;71289;51.552;6.210;2023-08-07T11:58:37;18.50;99.90
6142;DHT22;71289;51.552;6.210;2023-08-07T12:01:10;18.50;99.90
6142;DHT22;71289;51.552;6.210;2023-08-07T12:03:37;18.40;99.90
6142;DHT22;71289;51.552;6.210;2023-08-07T12:06:07;18.40;99.90
6142;DHT22;71289;51.552;6.210;2023-08-07T12:11:01;18.30;99.90
6142;DHT22;71289;51.552;6.210;2023-08-07T12:13:27;18.40;99.90
6142;DHT22;71289;51.552;6.210;2023-08-07T12:15:56;18.40;99.90
6142;DHT22;71289;51.552;6.210;2023-08-07T12:18:23;18.50;99.90
6142;DHT22;71289;51.552;6.210;2023-08-07T12:20:52;18.60;99.90
6142;DHT22;71289;51.552;6.210;2023-08-07T12:23:21;18.60;99.90
6142;DHT22;71289;51.552;6.210;2023-08-07T12:25:47;18.60;99.90
6142;DHT22;71289;51.552;6.210;2023-08-07T12:28:13;18.50;99.90
6142;DHT22;71289;51.552;6.210;2023-08-07T12:30:39;18.60;99.90
6142;DHT22;71289;51.552;6.210;2023-08-07T12:33:05;18.80;99.90
6142;DHT22;71289;51.552;6.210;2023-08-07T12:35:31;18.80;99.90
6142;DHT22;71289;51.552;6.210;2023-08-07T12:37:57;18.80;99.90
6142;DHT22;71289;51.552;6.210;2023-08-07T12:40:23;18.90;99.90
6142;DHT22;71289;51.552;6.210;2023-08-07T12:42:49;19.00;99.90
6142;DHT22;71289;51.552;6.210;2023-08-07T12:45:15;19.10;99.90
6142;DHT22;71289;51.552;6.210;2023-08-07T12:47:42;19.20;99.90
6142;DHT22;71289;51.552;6.210;2023-08-07T12:50:08;19.20;99.90
6142;DHT22;71289;51.552;6.210;2023-08-07T12:52:34;19.20;99.90
6142;DHT22;71289;51.552;6.210;2023-08-07T12:55:00;19.20;99.90
6142;DHT22;71289;51.552;6.210;2023-08-07T12:57:26;19.20;99.90
6142;DHT22;71289;51.552;6.210;2023-08-07T12:59:52;19.50;99.90
6142;DHT22;71289;51.552;6.210;2023-08-07T13:02:17;19.30;99.90
6142;DHT22;71289;51.552;6.210;2023-08-07T13:04:43;19.40;99.90
6142;DHT22;71289;51.552;6.210;2023-08-07T13:07:09;19.40;99.90
6142;DHT22;71289;51.552;6.210;2023-08-07T13:09:34;19.50;99.90
6142;DHT22;71289;51.552;6.210;2023-08-07T13:12:00;19.50;99.90
6142;DHT22;71289;51.552;6.210;2023-08-07T13:14:25;19.40;99.90
6142;DHT22;71289;51.552;6.210;2023-08-07T13:16:51;19.50;99.90
6142;DHT22;71289;51.552;6.210;2023-08-07T13:19:17;19.60;99.90
6142;DHT22;71289;51.552;6.210;2023-08-07T13:21:42;19.40;99.90
6142;DHT22;71289;51.552;6.210;2023-08-07T13:24:08;19.50;99.90
6142;DHT22;71289;51.552;6.210;2023-08-07T13:26:33;19.50;99.90
6142;DHT22;71289;51.552;6.210;2023-08-07T13:28:59;19.60;99.90
6142;DHT22;71289;51.552;6.210;2023-08-07T13:31:24;19.70;99.90
6142;DHT22;71289;51.552;6.210;2023-08-07T13:33:50;19.70;99.90
6142;DHT22;71289;51.552;6.210;2023-08-07T13:36:15;19.70;99.90
6142;DHT22;71289;51.552;6.210;2023-08-07T13:38:41;19.80;99.90
6142;DHT22;71289;51.552;6.210;2023-08-07T13:41:06;20.00;99.90
6142;DHT22;71289;51.552;6.210;2023-08-07T13:43:33;19.80;99.90
6142;DHT22;71289;51.552;6.210;2023-08-07T13:45:58;19.90;99.90
6142;DHT22;71289;51.552;6.210;2023-08-07T13:48:24;19.90;99.90
6142;DHT22;71289;51.552;6.210;2023-08-07T13:50:52;20.30;99.90
6142;DHT22;71289;51.552;6.210;2023-08-07T13:53:18;20.00;99.90
6142;DHT22;71289;51.552;6.210;2023-08-07T13:55:45;20.00;99.90
6142;DHT22;71289;51.552;6.210;2023-08-07T13:58:12;20.00;99.90
6142;DHT22;71289;51.552;6.210;2023-08-07T14:00:40;20.20;99.90
6142;DHT22;71289;51.552;6.210;2023-08-07T14:03:06;20.00;99.90
6142;DHT22;71289;51.552;6.210;2023-08-07T14:05:31;20.10;99.90
6142;DHT22;71289;51.552;6.210;2023-08-07T14:07:57;20.20;99.90
6142;DHT22;71289;51.552;6.210;2023-08-07T14:10:23;20.50;99.90
6142;DHT22;71289;51.552;6.210;2023-08-07T14:12:48;20.50;99.90
6142;DHT22;71289;51.552;6.210;2023-08-07T14:15:14;20.60;99.90
6142;DHT22;71289;51.552;6.210;2023-08-07T14:17:39;20.70;99.90
6142;DHT22;71289;51.552;6.210;2023-08-07T14:20:05;21.00;99.90
6142;DHT22;71289;51.552;6.210;2023-08-07T14:22:31;20.60;99.90
6142;DHT22;71289;51.552;6.210;2023-08-07T14:24:57;20.70;99.90
6142;DHT22;71289;51.552;6.210;2023-08-07T14:27:23;20.60;99.90
6142;DHT22;71289;51.552;6.210;2023-08-07T14:29:48;20.70;99.90
6142;DHT22;71289;51.552;6.210;2023-08-07T14:32:14;20.80;99.90
6142;DHT22;71289;51.552;6.210;2023-08-07T14:34:39;20.90;99.90
6142;DHT22;71289;51.552;6.210;2023-08-07T14:37:05;21.00;99.90
6142;DHT22;71289;51.552;6.210;2023-08-07T14:39:30;21.10;99.90
6142;DHT22;71289;51.552;6.210;2023-08-07T14:41:56;21.00;99.90
6142;DHT22;71289;51.552;6.210;2023-08-07T14:44:21;21.00;99.90
6142;DHT22;71289;51.552;6.210;2023-08-07T14:46:48;20.90;99.90
6142;DHT22;71289;51.552;6.210;2023-08-07T14:49:14;21.00;99.90
6142;DHT22;71289;51.552;6.210;2023-08-07T14:51:39;20.60;99.90
6142;DHT22;71289;51.552;6.210;2023-08-07T14:54:05;20.60;99.90
6142;DHT22;71289;51.552;6.210;2023-08-07T14:56:30;20.20;99.90
6142;DHT22;71289;51.552;6.210;2023-08-07T14:58:56;20.10;99.90
6142;DHT22;71289;51.552;6.210;2023-08-07T15:01:21;19.70;99.90
6142;DHT22;71289;51.552;6.210;2023-08-07T15:03:47;19.80;99.90
6142;DHT22;71289;51.552;6.210;2023-08-07T15:06:12;19.70;99.90
6142;DHT22;71289;51.552;6.210;2023-08-07T15:08:38;19.70;99.90
6142;DHT22;71289;51.552;6.210;2023-08-07T15:11:04;19.40;99.90
6142;DHT22;71289;51.552;6.210;2023-08-07T15:13:29;19.30;99.90
6142;DHT22;71289;51.552;6.210;2023-08-07T15:15:55;19.30;99.90
6142;DHT22;71289;51.552;6.210;2023-08-07T15:18:20;19.50;99.90
6142;DHT22;71289;51.552;6.210;2023-08-07T15:20:48;19.10;99.90
6142;DHT22;71289;51.552;6.210;2023-08-07T15:23:14;19.10;99.90
6142;DHT22;71289;51.552;6.210;2023-08-07T15:25:40;19.20;99.90
6142;DHT22;71289;51.552;6.210;2023-08-07T15:28:06;19.50;99.90
6142;DHT22;71289;51.552;6.210;2023-08-07T15:30:32;19.30;99.90
6142;DHT22;71289;51.552;6.210;2023-08-07T15:32:58;19.50;99.90
6142;DHT22;71289;51.552;6.210;2023-08-07T15:35:23;19.50;99.90
6142;DHT22;71289;51.552;6.210;2023-08-07T15:37:49;19.70;99.90
6142;DHT22;71289;51.552;6.210;2023-08-07T15:40:15;19.50;99.90
6142;DHT22;71289;51.552;6.210;2023-08-07T15:42:40;19.50;99.90
6142;DHT22;71289;51.552;6.210;2023-08-07T15:45:11;19.30;99.90
6142;DHT22;71289;51.552;6.210;2023-08-07T15:47:37;19.20;99.90
6142;DHT22;71289;51.552;6.210;2023-08-07T15:50:03;19.10;99.90